createdAt,value
2023-05-19T00:00:37.130Z,54.04
2023-05-19T00:03:08.960Z,54.75
2023-05-19T00:05:40.806Z,55.26
2023-05-19T00:08:11.169Z,55.48
2023-05-19T00:10:40.548Z,57.37
2023-05-19T00:13:09.482Z,56.85
2023-05-19T00:15:38.829Z,55.97
2023-05-19T00:18:10.038Z,55.77
2023-05-19T00:20:38.911Z,55.51
2023-05-19T00:23:07.656Z,56.74
2023-05-19T00:25:36.322Z,57.49
2023-05-19T00:28:05.408Z,58.81
2023-05-19T00:30:34.259Z,59.05
2023-05-19T00:33:03.137Z,58.26
2023-05-19T00:35:33.224Z,57.26
2023-05-19T00:38:01.907Z,58.78
2023-05-19T00:40:31.314Z,58.85
2023-05-19T00:43:00.462Z,61.04
2023-05-19T00:45:29.561Z,61.24
2023-05-19T00:47:58.501Z,59.37
2023-05-19T00:50:28.397Z,59.85
2023-05-19T00:52:58.454Z,60.21
2023-05-19T00:55:29.565Z,60.94
2023-05-19T00:57:58.484Z,58.75
2023-05-19T01:00:27.168Z,60.25
2023-05-19T01:02:56.149Z,61.42
2023-05-19T01:05:24.825Z,60.72
2023-05-19T01:07:55.561Z,60.96
2023-05-19T01:10:25.648Z,60.71
2023-05-19T01:12:54.324Z,60.99
2023-05-19T01:15:23.336Z,61.60
2023-05-19T01:17:57.157Z,60.54
2023-05-19T01:20:33.212Z,59.27
2023-05-19T01:23:17.190Z,58.45
2023-05-19T01:26:13.659Z,61.43
2023-05-19T01:28:58.780Z,61.43
2023-05-19T01:31:29.007Z,59.33
2023-05-19T01:33:58.413Z,58.95
2023-05-19T01:36:27.635Z,60.95
2023-05-19T01:39:01.399Z,63.49
2023-05-19T01:41:30.715Z,61.88
2023-05-19T01:43:59.514Z,62.23
2023-05-19T01:46:29.636Z,63.29
2023-05-19T01:48:59.066Z,62.70
2023-05-19T01:51:28.527Z,63.16
2023-05-19T01:53:57.464Z,62.24
2023-05-19T01:56:33.713Z,62.58
2023-05-19T01:59:09.835Z,62.19
2023-05-19T02:01:47.751Z,62.59
2023-05-19T02:04:21.545Z,61.16
2023-05-19T02:06:56.373Z,60.70
2023-05-19T02:09:34.067Z,62.38
2023-05-19T02:12:07.504Z,61.06
2023-05-19T02:14:41.418Z,61.63
2023-05-19T02:17:13.646Z,62.01
2023-05-19T02:19:42.634Z,61.46
2023-05-19T02:22:11.456Z,61.64
2023-05-19T02:24:41.425Z,60.79
2023-05-19T02:27:10.061Z,60.73
2023-05-19T02:29:38.741Z,60.39
2023-05-19T02:32:08.475Z,59.50
2023-05-19T02:34:38.570Z,60.17
2023-05-19T02:37:07.802Z,60.10
2023-05-19T02:39:36.436Z,60.28
2023-05-19T02:42:05.579Z,61.20
2023-05-19T02:44:34.379Z,61.70
2023-05-19T02:47:03.135Z,62.85
2023-05-19T02:49:35.769Z,63.00
2023-05-19T02:52:06.842Z,62.02
2023-05-19T02:54:36.173Z,62.52
2023-05-19T02:57:05.139Z,63.91
2023-05-19T02:59:33.811Z,64.03
2023-05-19T03:02:03.258Z,65.00
2023-05-19T03:04:31.930Z,64.03
2023-05-19T03:07:00.593Z,63.85
2023-05-19T03:09:31.249Z,64.32
2023-05-19T03:12:03.890Z,64.60
2023-05-19T03:14:33.574Z,65.20
2023-05-19T03:17:02.331Z,64.65
2023-05-19T03:19:32.434Z,63.74
2023-05-19T03:22:01.050Z,64.14
2023-05-19T03:24:31.044Z,64.16
2023-05-19T03:26:59.680Z,63.72
2023-05-19T03:29:28.376Z,63.54
2023-05-19T03:31:57.053Z,63.73
2023-05-19T03:34:25.794Z,63.86
2023-05-19T03:36:54.399Z,64.54
2023-05-19T03:39:23.046Z,65.27
2023-05-19T03:41:53.002Z,65.71
2023-05-19T03:44:21.685Z,66.16
2023-05-19T03:46:50.401Z,65.79
2023-05-19T03:49:19.170Z,65.73
2023-05-19T03:51:47.852Z,65.38
2023-05-19T03:54:16.916Z,66.15
2023-05-19T03:56:46.063Z,67.34
2023-05-19T03:59:16.123Z,67.20
2023-05-19T04:01:44.780Z,66.86
2023-05-19T04:04:13.417Z,67.47
2023-05-19T04:06:42.070Z,66.66
2023-05-19T04:09:13.783Z,67.13
2023-05-19T04:11:42.959Z,67.41
2023-05-19T04:14:11.613Z,67.29
2023-05-19T04:16:41.998Z,67.59
2023-05-19T04:19:10.778Z,67.45
2023-05-19T04:21:39.462Z,67.86
2023-05-19T04:24:08.492Z,67.81
2023-05-19T04:26:38.347Z,68.25
2023-05-19T04:29:07.053Z,67.79
2023-05-19T04:31:36.434Z,68.23
2023-05-19T04:34:07.837Z,68.21
2023-05-19T04:36:36.620Z,68.83
2023-05-19T04:39:07.893Z,68.86
2023-05-19T04:41:36.588Z,69.00
2023-05-19T04:44:05.256Z,68.56
2023-05-19T04:46:33.953Z,69.27
2023-05-19T04:49:03.159Z,70.16
2023-05-19T04:51:33.287Z,69.70
2023-05-19T04:54:02.311Z,69.07
2023-05-19T04:56:30.930Z,69.11
2023-05-19T04:58:59.647Z,68.92
2023-05-19T05:01:28.395Z,69.64
2023-05-19T05:03:58.931Z,69.15
2023-05-19T05:06:28.605Z,70.04
2023-05-19T05:08:58.595Z,70.14
2023-05-19T05:11:28.192Z,70.18
2023-05-19T05:13:58.082Z,70.22
2023-05-19T05:16:27.984Z,70.77
2023-05-19T05:18:57.515Z,70.50
2023-05-19T05:21:27.162Z,71.55
2023-05-19T05:23:56.356Z,69.50
2023-05-19T05:26:30.737Z,68.89
2023-05-19T05:28:59.414Z,68.59
2023-05-19T05:31:28.090Z,69.82
2023-05-19T05:33:56.777Z,68.23
2023-05-19T05:36:25.456Z,68.57
2023-05-19T05:38:54.137Z,67.81
2023-05-19T05:41:22.823Z,66.21
2023-05-19T05:43:52.768Z,65.34
2023-05-19T05:46:21.502Z,66.29
2023-05-19T05:48:50.833Z,64.24
2023-05-19T05:51:22.484Z,63.54
2023-05-19T05:53:54.075Z,62.02
2023-05-19T05:56:23.244Z,62.21
2023-05-19T05:58:53.729Z,61.27
2023-05-19T06:01:23.957Z,62.53
2023-05-19T06:03:52.678Z,63.86
2023-05-19T06:06:21.311Z,62.65
2023-05-19T06:08:50.005Z,62.46
2023-05-19T06:11:19.581Z,62.07
2023-05-19T06:13:48.307Z,60.21
2023-05-19T06:16:18.350Z,60.13
2023-05-19T06:18:47.103Z,61.28
2023-05-19T06:21:17.536Z,60.57
2023-05-19T06:23:46.247Z,61.39
2023-05-19T06:26:15.381Z,60.63
2023-05-19T06:28:44.032Z,59.12
2023-05-19T06:31:12.670Z,58.64
2023-05-19T06:33:42.679Z,58.19
2023-05-19T06:36:12.045Z,56.94
2023-05-19T06:38:40.990Z,57.78
2023-05-19T06:41:09.788Z,55.01
2023-05-19T06:43:38.517Z,55.57
2023-05-19T06:46:07.147Z,56.06
2023-05-19T06:48:35.886Z,56.15
2023-05-19T06:51:06.316Z,55.25
2023-05-19T06:53:34.972Z,56.23
2023-05-19T06:56:03.621Z,55.45
2023-05-19T06:58:32.256Z,57.45
2023-05-19T07:01:00.956Z,56.31
2023-05-19T07:03:30.948Z,56.19
2023-05-19T07:05:59.854Z,55.81
2023-05-19T07:08:29.925Z,57.73
2023-05-19T07:10:58.603Z,56.70
2023-05-19T07:13:27.761Z,56.84
2023-05-19T07:15:56.672Z,57.00
2023-05-19T07:18:25.414Z,57.32
2023-05-19T07:20:54.299Z,56.93
2023-05-19T07:23:22.947Z,56.64
2023-05-19T07:25:55.302Z,57.83
2023-05-19T07:28:23.969Z,57.55
2023-05-19T07:30:53.195Z,56.22
2023-05-19T07:33:21.858Z,56.73
2023-05-19T07:35:50.521Z,56.92
2023-05-19T07:38:19.238Z,57.50
2023-05-19T07:40:47.943Z,56.89
2023-05-19T07:43:17.947Z,57.37
2023-05-19T07:45:46.735Z,57.45
2023-05-19T07:48:15.715Z,58.32
2023-05-19T07:50:44.552Z,58.86
2023-05-19T07:53:13.225Z,55.85
2023-05-19T07:55:41.937Z,57.38
2023-05-19T07:58:10.556Z,57.57
2023-05-19T08:00:42.940Z,57.49
2023-05-19T08:03:11.820Z,57.56
2023-05-19T08:05:40.637Z,55.68
2023-05-19T08:08:09.510Z,56.09
2023-05-19T08:10:38.172Z,55.71
2023-05-19T08:13:07.697Z,56.06
2023-05-19T08:15:36.845Z,55.52
2023-05-19T08:18:07.094Z,56.06
2023-05-19T08:20:36.735Z,56.81
2023-05-19T08:23:05.475Z,57.03
2023-05-19T08:25:34.229Z,55.73
2023-05-19T08:28:02.874Z,56.34
2023-05-19T08:30:31.745Z,56.17
2023-05-19T08:33:00.598Z,55.23
2023-05-19T08:35:30.731Z,56.15
2023-05-19T08:37:59.341Z,54.67
2023-05-19T08:40:31.724Z,55.27
2023-05-19T08:43:00.617Z,54.83
2023-05-19T08:45:29.800Z,55.08
2023-05-19T08:47:59.155Z,57.43
2023-05-19T08:50:33.486Z,56.00
2023-05-19T08:53:04.674Z,55.52
2023-05-19T08:55:36.332Z,56.41
2023-05-19T08:58:05.532Z,55.88
2023-05-19T09:00:35.168Z,55.83
2023-05-19T09:03:17.568Z,56.06
2023-05-19T09:05:49.462Z,55.60
2023-05-19T09:08:18.598Z,55.29
2023-05-19T09:10:47.371Z,57.17
2023-05-19T09:13:16.060Z,53.76
2023-05-19T09:15:45.594Z,55.55
2023-05-19T09:18:15.248Z,55.10
2023-05-19T09:20:44.998Z,56.75
2023-05-19T09:23:16.159Z,55.27
2023-05-19T09:25:49.308Z,55.54
2023-05-19T09:28:25.127Z,55.69
2023-05-19T09:31:03.488Z,56.55
2023-05-19T09:33:34.111Z,55.49
2023-05-19T09:36:03.391Z,55.12
2023-05-19T09:38:33.609Z,54.09
2023-05-19T09:41:02.527Z,53.99
2023-05-19T09:43:31.712Z,54.93
2023-05-19T09:46:01.592Z,53.41
2023-05-19T09:48:31.279Z,53.12
2023-05-19T09:51:02.420Z,53.65
2023-05-19T09:53:33.804Z,55.13
2023-05-19T09:56:03.649Z,53.05
2023-05-19T09:58:34.753Z,52.98
2023-05-19T10:01:04.410Z,52.63
2023-05-19T10:03:33.675Z,53.29
2023-05-19T10:06:02.840Z,53.11
2023-05-19T10:08:33.264Z,54.23
2023-05-19T10:11:02.200Z,54.21
2023-05-19T10:13:32.044Z,53.30
2023-05-19T10:16:01.782Z,52.76
2023-05-19T10:18:31.192Z,55.52
2023-05-19T10:21:00.295Z,54.88
2023-05-19T10:23:28.965Z,54.01
2023-05-19T10:25:59.927Z,53.56
2023-05-19T10:28:42.137Z,52.96
2023-05-19T10:31:14.756Z,52.63
2023-05-19T10:33:53.438Z,54.94
2023-05-19T10:36:40.640Z,55.13
2023-05-19T10:39:14.161Z,52.36
2023-05-19T10:41:48.474Z,52.43
2023-05-19T10:44:24.574Z,52.97
2023-05-19T10:46:55.651Z,53.62
2023-05-19T10:49:25.512Z,55.45
2023-05-19T10:51:59.168Z,53.67
2023-05-19T10:54:43.644Z,53.42
2023-05-19T10:57:17.546Z,53.51
2023-05-19T10:59:46.295Z,52.94
2023-05-19T11:02:39.901Z,52.49
2023-05-19T11:05:10.539Z,52.19
2023-05-19T11:07:42.691Z,51.67
2023-05-19T11:10:12.511Z,52.78
2023-05-19T11:12:44.064Z,52.48
2023-05-19T11:15:13.868Z,53.48
2023-05-19T11:17:44.027Z,51.71
2023-05-19T11:20:23.748Z,51.73
2023-05-19T11:23:08.380Z,52.79
2023-05-19T11:25:44.926Z,52.79
2023-05-19T11:28:17.337Z,54.44
2023-05-19T11:30:50.633Z,54.53
2023-05-19T11:33:20.957Z,52.77
2023-05-19T11:35:51.489Z,53.21
2023-05-19T11:38:20.421Z,51.81
2023-05-19T11:40:50.036Z,53.69
2023-05-19T11:43:20.112Z,54.12
2023-05-19T11:45:48.821Z,52.22
2023-05-19T11:48:18.267Z,53.22
2023-05-19T11:50:47.139Z,53.64
2023-05-19T11:53:16.407Z,53.87
2023-05-19T11:55:47.051Z,52.87
2023-05-19T11:58:16.206Z,52.72
2023-05-19T12:00:47.564Z,52.90
2023-05-19T12:03:17.404Z,52.76
2023-05-19T12:05:47.794Z,52.29
2023-05-19T12:08:18.153Z,52.43
2023-05-19T12:10:49.363Z,52.25
2023-05-19T12:13:18.040Z,52.40
2023-05-19T12:15:48.233Z,52.34
2023-05-19T12:18:17.053Z,52.62
2023-05-19T12:20:45.812Z,52.01
2023-05-19T12:23:15.026Z,53.24
2023-05-19T12:25:43.783Z,52.61
2023-05-19T12:28:12.465Z,51.69
2023-05-19T12:30:41.482Z,51.70
2023-05-19T12:33:11.878Z,53.23
2023-05-19T12:35:40.718Z,52.11
2023-05-19T12:38:09.420Z,52.92
2023-05-19T12:40:42.480Z,52.54
2023-05-19T12:43:20.117Z,53.29
2023-05-19T12:45:48.882Z,53.07
2023-05-19T12:48:20.006Z,53.17
2023-05-19T12:50:49.387Z,52.03
2023-05-19T12:53:18.773Z,51.24
2023-05-19T12:55:47.495Z,53.06
2023-05-19T12:58:16.758Z,52.68
2023-05-19T13:00:48.412Z,53.07
2023-05-19T13:03:19.632Z,52.05
2023-05-19T13:05:50.371Z,50.87
2023-05-19T13:08:20.560Z,52.88
2023-05-19T13:10:49.882Z,52.31
2023-05-19T13:13:18.720Z,51.62
2023-05-19T13:15:49.910Z,52.63
2023-05-19T13:18:20.080Z,50.57
2023-05-19T13:20:50.192Z,50.62
2023-05-19T13:23:19.281Z,51.31
2023-05-19T13:25:48.038Z,51.34
2023-05-19T13:28:16.709Z,51.70
2023-05-19T13:30:46.157Z,53.84
2023-05-19T13:33:15.096Z,50.96
2023-05-19T13:35:45.143Z,51.36
2023-05-19T13:38:14.615Z,51.53
2023-05-19T13:40:43.295Z,51.71
2023-05-19T13:43:11.941Z,52.07
2023-05-19T13:45:42.157Z,51.62
2023-05-19T13:48:11.767Z,51.79
2023-05-19T13:50:40.474Z,51.96
2023-05-19T13:53:11.522Z,52.89
2023-05-19T13:55:40.640Z,51.90
2023-05-19T13:58:10.976Z,52.57
2023-05-19T14:00:39.825Z,53.64
2023-05-19T14:03:08.673Z,50.67
2023-05-19T14:05:37.430Z,52.11
2023-05-19T14:08:06.766Z,52.19
2023-05-19T14:10:36.772Z,52.21
2023-05-19T14:13:30.355Z,50.71
2023-05-19T14:15:54.336Z,50.45
2023-05-19T14:18:22.979Z,50.55
2023-05-19T14:20:51.706Z,51.21
2023-05-19T14:23:21.540Z,51.75
2023-05-19T14:25:51.603Z,51.37
2023-05-19T14:28:20.794Z,50.63
2023-05-19T14:30:49.966Z,50.54
2023-05-19T14:33:19.374Z,51.57
2023-05-19T14:35:49.306Z,51.72
2023-05-19T14:38:18.055Z,51.76
2023-05-19T14:40:48.445Z,51.70
2023-05-19T14:43:18.688Z,53.41
2023-05-19T14:45:47.424Z,51.77
2023-05-19T14:48:16.248Z,52.27
2023-05-19T14:50:45.090Z,51.30
2023-05-19T14:53:13.716Z,50.61
2023-05-19T14:55:42.409Z,51.41
2023-05-19T14:58:27.039Z,52.91
2023-05-19T15:01:00.104Z,52.59
2023-05-19T15:03:28.946Z,52.67
2023-05-19T15:05:57.751Z,51.99
2023-05-19T15:08:26.533Z,52.74
2023-05-19T15:10:55.180Z,51.82
2023-05-19T15:13:23.850Z,52.15
2023-05-19T15:16:08.246Z,52.34
2023-05-19T15:18:45.197Z,52.01
2023-05-19T15:21:14.057Z,52.68
2023-05-19T15:23:42.783Z,52.90
2023-05-19T15:26:11.445Z,51.78
2023-05-19T15:28:40.223Z,52.57
2023-05-19T15:31:08.882Z,52.95
2023-05-19T15:33:37.731Z,53.21
2023-05-19T15:36:07.880Z,53.07
2023-05-19T15:38:37.180Z,53.09
2023-05-19T15:41:08.124Z,53.28
2023-05-19T15:43:36.919Z,53.13
2023-05-19T15:46:06.056Z,53.71
2023-05-19T15:48:34.917Z,53.81
2023-05-19T15:51:03.648Z,52.48
2023-05-19T15:53:33.701Z,52.31
2023-05-19T15:56:03.976Z,53.92
2023-05-19T15:58:33.425Z,53.49
2023-05-19T16:01:02.192Z,54.17
2023-05-19T16:03:31.007Z,53.72
2023-05-19T16:06:00.714Z,52.45
2023-05-19T16:08:29.628Z,53.91
2023-05-19T16:10:59.632Z,52.28
2023-05-19T16:13:28.354Z,52.67
2023-05-19T16:15:57.067Z,52.25
2023-05-19T16:18:25.916Z,51.90
2023-05-19T16:20:54.607Z,52.86
2023-05-19T16:23:24.745Z,52.04
2023-05-19T16:25:54.632Z,53.01
2023-05-19T16:28:25.117Z,51.73
2023-05-19T16:30:53.897Z,52.73
2023-05-19T16:33:22.515Z,53.83
2023-05-19T16:35:51.408Z,52.86
2023-05-19T16:38:20.392Z,53.36
2023-05-19T16:40:49.045Z,53.02
2023-05-19T16:43:17.734Z,53.48
2023-05-19T16:45:47.797Z,52.59
2023-05-19T16:48:16.566Z,52.75
2023-05-19T16:50:45.239Z,53.74
2023-05-19T16:53:13.914Z,52.93
2023-05-19T16:55:42.584Z,52.79
2023-05-19T16:58:11.601Z,52.76
2023-05-19T17:00:40.389Z,54.18
2023-05-19T17:03:11.664Z,55.38
2023-05-19T17:05:43.323Z,55.42
2023-05-19T17:08:12.599Z,55.57
2023-05-19T17:10:41.386Z,54.69
2023-05-19T17:13:10.038Z,56.04
2023-05-19T17:15:39.995Z,55.17
2023-05-19T17:18:12.630Z,54.33
2023-05-19T17:20:41.588Z,55.87
2023-05-19T17:23:10.607Z,55.43
2023-05-19T17:25:39.208Z,55.94
2023-05-19T17:28:07.881Z,55.86
2023-05-19T17:30:36.599Z,55.80
2023-05-19T17:33:05.762Z,56.76
2023-05-19T17:35:35.873Z,55.19
2023-05-19T17:38:04.599Z,55.66
2023-05-19T17:40:33.491Z,55.17
2023-05-19T17:43:02.394Z,54.99
2023-05-19T17:45:31.158Z,56.00
2023-05-19T17:47:59.940Z,57.01
2023-05-19T17:50:28.702Z,56.66
2023-05-19T17:52:59.303Z,56.25
2023-05-19T17:55:31.011Z,57.72
2023-05-19T17:58:00.276Z,57.49
2023-05-19T18:00:29.473Z,57.42
2023-05-19T18:02:58.988Z,57.75
2023-05-19T18:05:28.643Z,57.42
2023-05-19T18:07:58.919Z,56.29
2023-05-19T18:10:28.553Z,59.15
2023-05-19T18:12:57.213Z,59.00
2023-05-19T18:15:25.868Z,57.04
2023-05-19T18:17:54.563Z,58.01
2023-05-19T18:20:23.340Z,57.59
2023-05-19T18:22:53.145Z,57.74
2023-05-19T18:25:23.125Z,58.94
2023-05-19T18:27:55.627Z,59.49
2023-05-19T18:30:24.622Z,60.00
2023-05-19T18:32:53.271Z,60.92
2023-05-19T18:35:22.012Z,59.88
2023-05-19T18:37:50.716Z,60.53
2023-05-19T18:40:19.412Z,61.55
2023-05-19T18:42:49.467Z,62.15
2023-05-19T18:45:18.235Z,62.79
2023-05-19T18:47:46.925Z,62.43
2023-05-19T18:50:16.512Z,61.11
2023-05-19T18:52:45.177Z,60.37
2023-05-19T18:55:13.777Z,60.44
2023-05-19T18:57:42.461Z,60.42
2023-05-19T19:00:14.570Z,62.66
2023-05-19T19:02:43.281Z,62.85
2023-05-19T19:05:13.769Z,63.35
2023-05-19T19:07:43.252Z,64.46
2023-05-19T19:10:12.232Z,64.48
2023-05-19T19:12:40.959Z,65.33
2023-05-19T19:15:10.873Z,64.80
2023-05-19T19:17:41.173Z,64.45
2023-05-19T19:20:11.083Z,65.34
2023-05-19T19:22:39.851Z,65.17
2023-05-19T19:25:09.315Z,64.98
2023-05-19T19:27:37.966Z,64.78
2023-05-19T19:30:08.023Z,65.67
2023-05-19T19:32:36.791Z,65.92
2023-05-19T19:35:07.332Z,66.69
2023-05-19T19:37:36.049Z,67.28
2023-05-19T19:40:05.226Z,67.32
2023-05-19T19:42:34.090Z,66.61
2023-05-19T19:45:02.938Z,67.66
2023-05-19T19:47:32.716Z,68.23
2023-05-19T19:50:05.477Z,68.39
2023-05-19T19:52:35.499Z,67.26
2023-05-19T19:55:04.492Z,67.10
2023-05-19T19:57:34.241Z,67.95
2023-05-19T20:00:08.054Z,67.86
2023-05-19T20:02:45.548Z,69.33
2023-05-19T20:05:24.473Z,67.54
2023-05-19T20:07:54.527Z,67.50
2023-05-19T20:10:23.270Z,67.67
2023-05-19T20:12:52.196Z,68.22
2023-05-19T20:15:21.114Z,68.80
2023-05-19T20:17:49.788Z,68.61
2023-05-19T20:20:18.664Z,68.70
2023-05-19T20:22:47.630Z,68.99
2023-05-19T20:25:17.744Z,68.19
2023-05-19T20:27:46.414Z,68.61
2023-05-19T20:30:15.080Z,68.47
2023-05-19T20:32:43.754Z,68.40
2023-05-19T20:35:12.522Z,68.61
2023-05-19T20:37:41.358Z,68.11
2023-05-19T20:40:11.111Z,68.21
2023-05-19T20:42:41.771Z,68.73
2023-05-19T20:45:10.679Z,68.58
2023-05-19T20:47:39.411Z,68.21
2023-05-19T20:50:09.079Z,69.73
2023-05-19T20:52:37.696Z,70.69
2023-05-19T20:55:06.727Z,71.25
2023-05-19T20:57:35.800Z,70.27
2023-05-19T21:00:07.009Z,70.53
2023-05-19T21:02:35.795Z,71.38
2023-05-19T21:05:05.356Z,70.16
2023-05-19T21:07:34.180Z,70.12
2023-05-19T21:10:02.892Z,69.73
2023-05-19T21:12:34.272Z,70.12
2023-05-19T21:15:05.950Z,69.88
2023-05-19T21:17:34.678Z,70.20
2023-05-19T21:20:03.852Z,70.15
2023-05-19T21:22:32.805Z,70.39
2023-05-19T21:25:01.496Z,69.93
2023-05-19T21:27:32.185Z,70.24
2023-05-19T21:30:00.842Z,70.34
2023-05-19T21:32:30.907Z,70.12
2023-05-19T21:34:59.989Z,70.88
2023-05-19T21:37:28.663Z,71.34
2023-05-19T21:39:57.326Z,71.69
2023-05-19T21:42:25.966Z,71.58
2023-05-19T21:44:54.860Z,72.16
2023-05-19T21:47:23.693Z,71.84
2023-05-19T21:49:53.705Z,72.09
2023-05-19T21:52:22.932Z,73.00
2023-05-19T21:54:51.928Z,73.39
2023-05-19T21:57:20.644Z,73.62
2023-05-19T21:59:49.950Z,73.56
2023-05-19T22:02:18.650Z,73.77
2023-05-19T22:04:47.310Z,74.00
2023-05-19T22:07:17.467Z,74.40
2023-05-19T22:09:48.160Z,74.46
2023-05-19T22:12:17.719Z,74.93
2023-05-19T22:14:46.592Z,75.79
2023-05-19T22:17:15.391Z,76.21
2023-05-19T22:19:43.974Z,75.60
2023-05-19T22:22:14.300Z,76.14
2023-05-19T22:24:44.848Z,76.09
2023-05-19T22:27:13.459Z,75.10
2023-05-19T22:29:42.088Z,74.63
2023-05-19T22:32:12.157Z,74.72
2023-05-19T22:34:41.066Z,74.99
2023-05-19T22:37:09.697Z,75.11
2023-05-19T22:39:39.380Z,74.78
2023-05-19T22:42:09.392Z,74.09
2023-05-19T22:44:38.054Z,74.96
2023-05-19T22:47:06.838Z,75.25
2023-05-19T22:49:35.732Z,77.75
2023-05-19T22:52:04.626Z,77.36
2023-05-19T22:54:33.327Z,78.34
2023-05-19T22:57:03.344Z,77.99
2023-05-19T22:59:33.621Z,77.60
2023-05-19T23:02:02.511Z,78.51
2023-05-19T23:04:31.446Z,78.65
2023-05-19T23:07:00.199Z,78.34
2023-05-19T23:09:29.099Z,78.10
2023-05-19T23:11:57.791Z,79.08
2023-05-19T23:14:26.826Z,78.88
2023-05-19T23:16:56.953Z,79.52
2023-05-19T23:19:25.815Z,80.08
2023-05-19T23:21:54.492Z,80.96
2023-05-19T23:24:23.159Z,79.34
2023-05-19T23:26:52.023Z,80.24
2023-05-19T23:29:20.735Z,80.01
2023-05-19T23:31:49.411Z,80.32
2023-05-19T23:34:19.457Z,80.29
2023-05-19T23:36:48.236Z,80.28
2023-05-19T23:39:16.933Z,80.22
2023-05-19T23:41:46.101Z,81.31
2023-05-19T23:44:14.757Z,80.88
2023-05-19T23:46:43.492Z,80.87
2023-05-19T23:49:12.146Z,81.40
2023-05-19T23:51:42.962Z,81.08
2023-05-19T23:54:11.645Z,81.26
2023-05-19T23:56:40.375Z,80.53
2023-05-19T23:59:09.018Z,81.05
